Tobias Barreto, Brazil
Current Conditions -  °F | °C
As of 9:00 AM on Wednesday 28 Jan 2015 (Local Time) from SBAR Reporting Station
Scattered Clouds Scattered Clouds  
Wind Chill: 84°   Ceiling: Unl
Heat Index: 88°   Visibility: 6mi
Dew Point: 70°   Wind: 5mph
Humidity: 62%   Direction: 150°SSE
Pressure: 29.97"   Gusts: NA
Location:  11.18°S, 38°W
Report Text: SBAR 281200Z 15004KT 9999 SCT015 29/21 Q1015
Loading
Personal Weather Stations






























Interactive Weather Map New forecast layout! Learn more

10-Day Weather Forecast

Advertisements
Track Severe Weather on mobile